createdAt,value
2018-05-29T00:01:14.773Z,20.88
2018-05-29T00:03:40.739Z,20.83
2018-05-29T00:06:06.695Z,20.80
2018-05-29T00:08:32.612Z,20.81
2018-05-29T00:10:58.520Z,20.77
2018-05-29T00:13:24.461Z,20.68
2018-05-29T00:15:50.451Z,20.73
2018-05-29T00:18:16.363Z,20.78
2018-05-29T00:20:42.321Z,20.71
2018-05-29T00:23:08.233Z,20.66
2018-05-29T00:25:34.150Z,20.52
2018-05-29T00:28:00.180Z,20.56
2018-05-29T00:30:26.166Z,20.49
2018-05-29T00:32:52.098Z,20.43
2018-05-29T00:35:18.057Z,20.41
2018-05-29T00:37:44.004Z,20.33
2018-05-29T00:40:10.040Z,20.25
2018-05-29T00:42:36.028Z,20.17
2018-05-29T00:45:02.192Z,20.09
2018-05-29T00:47:28.062Z,20.07
2018-05-29T00:49:54.021Z,19.99
2018-05-29T00:52:20.364Z,19.97
2018-05-29T00:54:58.493Z,19.89
2018-05-29T00:57:24.387Z,19.82
2018-05-29T00:59:50.341Z,19.75
2018-05-29T01:02:16.275Z,19.66
2018-05-29T01:04:42.309Z,19.60
2018-05-29T01:07:08.247Z,19.55
2018-05-29T01:09:34.189Z,19.48
2018-05-29T01:12:00.117Z,19.44
2018-05-29T01:14:25.964Z,19.36
2018-05-29T01:16:52.019Z,19.33
2018-05-29T01:19:18.007Z,19.30
2018-05-29T01:21:43.879Z,19.21
2018-05-29T01:24:10.665Z,19.22
2018-05-29T01:29:34.573Z,19.10
2018-05-29T01:32:00.489Z,19.13
2018-05-29T01:34:26.355Z,19.11
2018-05-29T01:36:52.292Z,19.09
2018-05-29T01:39:18.175Z,19.06
2018-05-29T01:41:44.280Z,19.06
2018-05-29T01:44:10.171Z,19.07
2018-05-29T01:46:36.103Z,19.09
2018-05-29T01:49:01.981Z,19.05
2018-05-29T01:51:28.221Z,19.00
2018-05-29T01:53:54.245Z,18.93
2018-05-29T01:56:20.133Z,18.86
2018-05-29T01:58:46.036Z,18.80
2018-05-29T02:01:11.904Z,18.77
2018-05-29T02:03:37.779Z,18.76
2018-05-29T02:06:03.895Z,18.77
2018-05-29T02:08:29.780Z,18.78
2018-05-29T02:10:55.721Z,18.73
2018-05-29T02:13:21.649Z,18.73
2018-05-29T02:15:47.557Z,18.72
2018-05-29T02:18:13.558Z,18.72
2018-05-29T02:20:39.497Z,18.74
2018-05-29T02:23:05.398Z,18.85
2018-05-29T02:25:31.280Z,18.81
2018-05-29T02:27:57.216Z,18.80
2018-05-29T02:30:23.257Z,18.93
2018-05-29T02:32:49.119Z,18.99
2018-05-29T02:35:15.082Z,19.01
2018-05-29T02:37:40.947Z,19.03
2018-05-29T02:40:06.847Z,18.95
2018-05-29T02:42:32.937Z,18.94
2018-05-29T02:44:58.843Z,18.88
2018-05-29T02:47:24.740Z,18.85
2018-05-29T02:49:50.667Z,18.84
2018-05-29T02:52:16.562Z,18.78
2018-05-29T02:54:42.578Z,18.72
2018-05-29T02:57:08.557Z,18.74
2018-05-29T02:59:34.450Z,18.80
2018-05-29T03:02:00.360Z,18.71
2018-05-29T03:04:26.347Z,18.65
2018-05-29T03:06:52.393Z,18.67
2018-05-29T03:09:18.303Z,18.62
2018-05-29T03:11:44.243Z,18.58
2018-05-29T03:14:10.104Z,18.55
2018-05-29T03:16:35.971Z,18.54
2018-05-29T03:19:02.038Z,18.50
2018-05-29T03:21:27.911Z,18.46
2018-05-29T03:23:53.797Z,18.49
2018-05-29T03:26:19.739Z,18.44
2018-05-29T03:28:45.630Z,18.47
2018-05-29T03:31:11.677Z,18.42
2018-05-29T03:33:37.649Z,18.38
2018-05-29T03:36:03.539Z,18.37
2018-05-29T03:38:29.461Z,18.40
2018-05-29T03:40:55.414Z,18.35
2018-05-29T03:43:22.972Z,18.35
2018-05-29T03:45:48.872Z,18.36
2018-05-29T03:48:14.797Z,18.34
2018-05-29T03:50:40.655Z,18.35
2018-05-29T03:53:06.557Z,18.32
2018-05-29T03:55:32.623Z,18.29
2018-05-29T03:57:58.501Z,18.28
2018-05-29T04:00:24.397Z,18.33
2018-05-29T04:02:50.315Z,18.31
2018-05-29T04:05:16.189Z,18.40
2018-05-29T04:07:42.216Z,18.40
2018-05-29T04:10:08.128Z,18.45
2018-05-29T04:12:34.015Z,18.48
2018-05-29T04:14:59.883Z,18.51
2018-05-29T04:17:25.834Z,18.62
2018-05-29T04:19:52.454Z,18.65
2018-05-29T04:22:18.364Z,18.72
2018-05-29T04:24:44.411Z,18.73
2018-05-29T04:27:11.412Z,18.76
2018-05-29T04:29:37.364Z,18.85
2018-05-29T04:32:03.368Z,18.93
2018-05-29T04:34:29.261Z,19.07
2018-05-29T04:36:55.222Z,19.11
2018-05-29T04:39:21.141Z,19.19
2018-05-29T04:41:47.048Z,19.15
2018-05-29T04:44:12.925Z,19.30
2018-05-29T04:46:39.821Z,19.41
2018-05-29T04:49:05.811Z,19.56
2018-05-29T04:51:31.715Z,19.69
2018-05-29T04:53:57.708Z,19.90
2018-05-29T04:56:23.741Z,19.91
2018-05-29T04:58:49.649Z,20.10
2018-05-29T05:01:16.024Z,20.34
2018-05-29T05:03:41.893Z,20.45
2018-05-29T05:06:07.796Z,20.60
2018-05-29T05:08:33.723Z,20.77
2018-05-29T05:10:59.610Z,20.96
2018-05-29T05:13:25.555Z,21.11
2018-05-29T05:15:51.496Z,21.28
2018-05-29T05:18:17.387Z,21.37
2018-05-29T05:20:43.251Z,21.47
2018-05-29T05:23:09.202Z,21.57
2018-05-29T05:25:35.137Z,21.66
2018-05-29T05:28:01.034Z,21.76
2018-05-29T05:30:26.957Z,21.86
2018-05-29T05:32:52.905Z,21.95
2018-05-29T05:35:18.810Z,22.05
2018-05-29T05:37:44.833Z,22.16
2018-05-29T05:40:10.711Z,22.29
2018-05-29T05:42:37.539Z,22.40
2018-05-29T05:45:03.465Z,22.50
2018-05-29T05:47:29.386Z,22.62
2018-05-29T05:49:55.255Z,22.72
2018-05-29T05:52:21.183Z,22.70
2018-05-29T05:54:48.069Z,22.85
2018-05-29T05:57:13.930Z,23.06
2018-05-29T05:59:39.860Z,23.00
2018-05-29T06:02:06.654Z,23.05
2018-05-29T06:04:32.545Z,23.24
2018-05-29T06:06:58.511Z,23.31
2018-05-29T06:09:25.140Z,23.37
2018-05-29T06:11:51.025Z,23.55
2018-05-29T06:16:49.477Z,23.70
2018-05-29T06:19:15.361Z,23.78
2018-05-29T06:21:41.360Z,23.87
2018-05-29T06:24:07.230Z,24.09
2018-05-29T06:26:33.152Z,24.12
2018-05-29T06:28:59.095Z,24.30
2018-05-29T06:31:24.987Z,24.41
2018-05-29T06:33:51.917Z,24.49
2018-05-29T06:36:17.867Z,24.54
2018-05-29T06:38:45.065Z,24.71
2018-05-29T06:41:10.956Z,24.74
2018-05-29T06:43:36.888Z,24.92
2018-05-29T06:46:02.788Z,24.88
2018-05-29T06:48:28.653Z,24.93
2018-05-29T06:50:54.689Z,25.13
2018-05-29T06:53:20.599Z,25.26
2018-05-29T06:55:47.456Z,25.36
2018-05-29T06:58:13.376Z,25.51
2018-05-29T07:00:39.265Z,25.63
2018-05-29T07:03:05.237Z,25.72
2018-05-29T07:05:31.156Z,25.69
2018-05-29T07:07:57.038Z,25.75
2018-05-29T07:10:22.993Z,25.87
2018-05-29T07:12:48.939Z,26.12
2018-05-29T07:15:14.916Z,26.18
2018-05-29T07:17:40.826Z,26.37
2018-05-29T07:20:06.772Z,26.34
2018-05-29T07:22:32.675Z,26.61
2018-05-29T07:24:58.544Z,26.74
2018-05-29T07:27:24.488Z,26.95
2018-05-29T07:29:50.352Z,26.98
2018-05-29T07:32:17.598Z,26.84
2018-05-29T07:34:43.547Z,27.10
2018-05-29T07:37:09.433Z,27.30
2018-05-29T07:39:35.376Z,27.20
2018-05-29T07:42:01.335Z,27.26
2018-05-29T07:44:27.261Z,27.24
2018-05-29T07:46:53.168Z,27.32
2018-05-29T07:49:19.118Z,27.56
2018-05-29T07:51:45.037Z,27.37
2018-05-29T07:54:10.938Z,27.53
2018-05-29T07:56:36.857Z,27.52
2018-05-29T07:59:02.765Z,27.60
2018-05-29T08:01:28.748Z,27.69
2018-05-29T08:03:54.750Z,28.01
2018-05-29T08:06:20.713Z,28.12
2018-05-29T08:08:46.584Z,27.91
2018-05-29T08:11:12.533Z,28.06
2018-05-29T08:13:38.457Z,28.26
2018-05-29T08:16:04.352Z,28.44
2018-05-29T08:18:30.317Z,28.49
2018-05-29T08:20:56.243Z,28.59
2018-05-29T08:23:22.130Z,28.45
2018-05-29T08:25:48.061Z,28.41
2018-05-29T08:28:13.961Z,28.78
2018-05-29T08:30:39.863Z,28.74
2018-05-29T08:33:05.785Z,28.86
2018-05-29T08:35:31.713Z,28.78
2018-05-29T08:37:57.685Z,28.95
2018-05-29T08:40:23.646Z,29.19
2018-05-29T08:42:49.563Z,29.53
2018-05-29T08:45:15.487Z,29.32
2018-05-29T08:47:41.428Z,29.52
2018-05-29T08:50:07.308Z,29.81
2018-05-29T08:52:33.199Z,29.56
2018-05-29T08:54:59.100Z,29.63
2018-05-29T08:57:25.101Z,29.87
2018-05-29T08:59:50.981Z,29.97
2018-05-29T09:02:16.942Z,30.06
2018-05-29T09:04:42.844Z,30.24
2018-05-29T09:07:08.722Z,30.36
2018-05-29T09:09:34.650Z,30.20
2018-05-29T09:12:00.514Z,30.72
2018-05-29T09:14:26.432Z,30.51
2018-05-29T09:16:52.489Z,30.43
2018-05-29T09:19:18.373Z,30.34
2018-05-29T09:21:44.236Z,30.54
2018-05-29T09:24:10.178Z,30.66
2018-05-29T09:26:36.057Z,31.02
2018-05-29T09:29:01.932Z,30.68
2018-05-29T09:31:27.896Z,31.10
2018-05-29T09:33:53.985Z,31.17
2018-05-29T09:36:19.930Z,31.54
2018-05-29T09:38:45.885Z,31.52
2018-05-29T09:41:11.893Z,31.71
2018-05-29T09:43:37.787Z,31.68
2018-05-29T09:46:03.721Z,31.33
2018-05-29T09:48:29.604Z,31.51
2018-05-29T09:50:55.700Z,32.10
2018-05-29T09:53:21.641Z,32.02
2018-05-29T09:55:47.532Z,32.48
2018-05-29T09:58:13.425Z,32.63
2018-05-29T10:00:39.358Z,32.42
2018-05-29T10:03:05.241Z,32.93
2018-05-29T10:05:31.273Z,32.92
2018-05-29T10:07:57.927Z,33.21
2018-05-29T10:10:24.165Z,33.18
2018-05-29T10:12:50.076Z,33.25
2018-05-29T10:15:16.009Z,33.25
2018-05-29T10:17:41.904Z,32.88
2018-05-29T10:20:07.799Z,33.14
2018-05-29T10:22:33.740Z,33.05
2018-05-29T10:24:59.608Z,33.57
2018-05-29T10:27:25.480Z,34.01
2018-05-29T10:29:51.424Z,33.04
2018-05-29T10:32:17.312Z,33.68
2018-05-29T10:34:43.242Z,33.84
2018-05-29T10:37:09.186Z,33.18
2018-05-29T10:39:35.121Z,33.56
2018-05-29T10:42:01.064Z,33.68
2018-05-29T10:44:27.473Z,34.22
2018-05-29T10:46:53.355Z,34.29
2018-05-29T10:49:19.287Z,35.15
2018-05-29T10:51:45.256Z,35.15
2018-05-29T10:54:11.520Z,34.93
2018-05-29T10:56:37.413Z,34.32
2018-05-29T10:59:03.360Z,34.79
2018-05-29T11:01:29.235Z,35.09
2018-05-29T11:03:55.118Z,34.54
2018-05-29T11:06:21.063Z,34.27
2018-05-29T11:08:47.031Z,34.79
2018-05-29T11:11:12.914Z,34.64
2018-05-29T11:13:38.905Z,34.83
2018-05-29T11:16:04.788Z,35.98
2018-05-29T11:18:30.700Z,36.12
2018-05-29T11:20:57.633Z,36.30
2018-05-29T11:23:23.504Z,36.42
2018-05-29T11:25:49.379Z,36.24
2018-05-29T11:28:15.333Z,36.03
2018-05-29T11:30:41.233Z,34.84
2018-05-29T11:33:07.153Z,34.74
2018-05-29T11:35:33.091Z,35.84
2018-05-29T11:37:58.984Z,34.65
2018-05-29T11:40:24.868Z,35.61
2018-05-29T11:42:50.874Z,35.94
2018-05-29T11:45:16.752Z,36.18
2018-05-29T11:47:42.638Z,35.75
2018-05-29T11:50:09.131Z,35.54
2018-05-29T11:52:35.010Z,35.77
2018-05-29T11:55:00.912Z,37.06
2018-05-29T11:57:26.847Z,37.44
2018-05-29T11:59:52.745Z,36.76
2018-05-29T12:02:18.676Z,36.86
2018-05-29T12:04:44.597Z,36.74
2018-05-29T12:07:10.509Z,36.70
2018-05-29T12:09:36.409Z,36.19
2018-05-29T12:12:14.759Z,34.97
2018-05-29T12:14:40.666Z,34.78
2018-05-29T12:17:06.532Z,34.10
2018-05-29T12:19:32.472Z,33.69
2018-05-29T12:21:59.255Z,33.31
2018-05-29T12:24:25.184Z,33.37
2018-05-29T12:26:52.118Z,33.37
2018-05-29T12:29:18.058Z,32.81
2018-05-29T12:31:43.994Z,33.02
2018-05-29T12:34:09.899Z,32.76
2018-05-29T12:36:35.834Z,32.49
2018-05-29T12:39:01.781Z,32.60
2018-05-29T12:41:27.732Z,32.64
2018-05-29T12:43:53.656Z,32.64
2018-05-29T12:46:19.631Z,32.58
2018-05-29T12:48:45.508Z,32.60
2018-05-29T12:51:11.409Z,32.52
2018-05-29T12:53:38.189Z,32.90
2018-05-29T12:56:04.135Z,32.83
2018-05-29T12:58:29.999Z,32.42
2018-05-29T13:00:55.883Z,32.28
2018-05-29T13:03:21.831Z,32.06
2018-05-29T13:05:47.701Z,32.12
2018-05-29T13:08:13.574Z,32.41
2018-05-29T13:10:39.483Z,32.20
2018-05-29T13:13:05.405Z,32.62
2018-05-29T13:15:31.304Z,32.44
2018-05-29T13:17:57.573Z,32.45
2018-05-29T13:20:23.463Z,32.62
2018-05-29T13:22:49.355Z,32.53
2018-05-29T13:25:15.283Z,32.46
2018-05-29T13:27:41.206Z,32.72
2018-05-29T13:30:07.102Z,32.64
2018-05-29T13:32:33.051Z,32.79
2018-05-29T13:34:58.948Z,32.72
2018-05-29T13:37:24.819Z,32.70
2018-05-29T13:39:50.740Z,32.87
2018-05-29T13:42:16.677Z,32.73
2018-05-29T13:44:42.644Z,32.70
2018-05-29T13:47:08.555Z,32.68
2018-05-29T13:49:34.439Z,32.96
2018-05-29T13:52:00.325Z,32.60
2018-05-29T13:54:26.278Z,33.13
2018-05-29T13:56:52.159Z,33.11
2018-05-29T13:59:18.117Z,33.00
2018-05-29T14:01:44.103Z,32.58
2018-05-29T14:04:09.976Z,32.47
2018-05-29T14:06:35.890Z,33.14
2018-05-29T14:09:02.102Z,33.38
2018-05-29T14:11:27.991Z,33.54
2018-05-29T14:13:53.880Z,33.37
2018-05-29T14:16:19.798Z,33.09
2018-05-29T14:18:45.690Z,33.20
2018-05-29T14:21:11.589Z,33.05
2018-05-29T14:23:37.519Z,32.75
2018-05-29T14:26:03.405Z,33.16
2018-05-29T14:28:29.292Z,33.09
2018-05-29T14:30:55.261Z,32.84
2018-05-29T14:33:22.021Z,33.17
2018-05-29T14:35:47.919Z,33.59
2018-05-29T14:38:13.890Z,33.20
2018-05-29T14:40:39.782Z,33.09
2018-05-29T14:43:05.679Z,33.48
2018-05-29T14:45:31.884Z,33.08
2018-05-29T14:47:57.762Z,33.12
2018-05-29T14:50:23.643Z,33.60
2018-05-29T14:52:49.573Z,33.81
2018-05-29T14:55:15.530Z,34.41
2018-05-29T14:57:41.429Z,35.14
2018-05-29T15:00:07.355Z,34.57
2018-05-29T15:02:33.239Z,34.68
2018-05-29T15:04:59.109Z,35.25
2018-05-29T15:07:25.031Z,37.01
2018-05-29T15:09:50.931Z,39.86
2018-05-29T15:12:16.815Z,38.29
2018-05-29T15:14:43.643Z,37.83
2018-05-29T15:17:09.648Z,37.99
2018-05-29T15:19:35.528Z,39.47
2018-05-29T15:22:01.451Z,38.37
2018-05-29T15:24:27.379Z,38.79
2018-05-29T15:26:53.271Z,38.85
2018-05-29T15:29:19.199Z,40.97
2018-05-29T15:31:45.072Z,41.73
2018-05-29T15:34:10.989Z,39.91
2018-05-29T15:36:37.624Z,38.84
2018-05-29T15:39:03.561Z,37.56
2018-05-29T15:41:29.482Z,36.79
2018-05-29T15:43:55.413Z,38.46
2018-05-29T15:46:21.357Z,37.45
2018-05-29T15:48:47.269Z,35.63
2018-05-29T15:51:13.224Z,34.91
2018-05-29T15:53:39.096Z,33.53
2018-05-29T15:56:05.014Z,33.13
2018-05-29T15:58:30.941Z,32.80
2018-05-29T16:00:56.846Z,32.84
2018-05-29T16:03:22.717Z,32.46
2018-05-29T16:05:48.668Z,32.49
2018-05-29T16:08:14.545Z,32.42
2018-05-29T16:10:40.436Z,32.31
2018-05-29T16:13:06.415Z,32.39
2018-05-29T16:15:32.310Z,31.83
2018-05-29T16:17:58.205Z,31.62
2018-05-29T16:20:24.158Z,31.49
2018-05-29T16:22:50.052Z,31.61
2018-05-29T16:25:15.953Z,31.51
2018-05-29T16:27:42.450Z,31.29
2018-05-29T16:30:09.129Z,31.30
2018-05-29T16:32:35.070Z,31.46
2018-05-29T16:35:01.041Z,31.20
2018-05-29T16:37:26.948Z,31.00
2018-05-29T16:39:52.936Z,30.95
2018-05-29T16:42:18.881Z,31.15
2018-05-29T16:44:44.796Z,31.01
2018-05-29T16:47:10.703Z,30.86
2018-05-29T16:49:36.651Z,31.04
2018-05-29T16:52:02.549Z,30.85
2018-05-29T16:54:28.461Z,30.43
2018-05-29T16:56:54.385Z,30.54
2018-05-29T16:59:20.276Z,30.39
2018-05-29T17:01:46.241Z,30.35
2018-05-29T17:04:12.191Z,30.34
2018-05-29T17:06:38.142Z,30.27
2018-05-29T17:09:04.995Z,30.20
2018-05-29T17:11:31.001Z,30.15
2018-05-29T17:13:56.895Z,29.92
2018-05-29T17:16:22.788Z,29.87
2018-05-29T17:18:48.736Z,29.68
2018-05-29T17:21:14.677Z,29.47
2018-05-29T17:23:41.497Z,29.53
2018-05-29T17:26:07.440Z,29.40
2018-05-29T17:28:33.331Z,29.37
2018-05-29T17:30:59.244Z,29.34
2018-05-29T17:33:25.175Z,29.15
2018-05-29T17:35:51.085Z,29.16
2018-05-29T17:38:17.027Z,29.09
2018-05-29T17:40:42.904Z,28.98
2018-05-29T17:43:08.775Z,28.93
2018-05-29T17:45:34.675Z,28.89
2018-05-29T17:48:00.685Z,28.80
2018-05-29T17:50:26.571Z,28.78
2018-05-29T17:52:52.543Z,28.72
2018-05-29T17:55:18.472Z,28.67
2018-05-29T17:57:44.384Z,28.64
2018-05-29T18:00:10.275Z,28.59
2018-05-29T18:02:36.221Z,28.50
2018-05-29T18:05:02.116Z,28.27
2018-05-29T18:07:28.013Z,28.27
2018-05-29T18:09:53.958Z,28.25
2018-05-29T18:12:19.851Z,28.13
2018-05-29T18:14:45.769Z,28.10
2018-05-29T18:17:11.740Z,28.05
2018-05-29T18:19:37.617Z,27.85
2018-05-29T18:22:03.519Z,27.77
2018-05-29T18:24:29.462Z,27.69
2018-05-29T18:26:55.339Z,27.68
2018-05-29T18:29:21.232Z,27.47
2018-05-29T18:31:47.176Z,27.33
2018-05-29T18:34:13.079Z,27.33
2018-05-29T18:36:38.993Z,27.31
2018-05-29T18:39:04.952Z,27.30
2018-05-29T18:41:30.857Z,27.23
2018-05-29T18:43:56.735Z,27.20
2018-05-29T18:46:22.688Z,27.18
2018-05-29T18:48:48.625Z,27.08
2018-05-29T18:51:14.522Z,26.97
2018-05-29T18:53:40.456Z,26.83
2018-05-29T18:56:06.377Z,26.82
2018-05-29T18:58:32.267Z,26.71
2018-05-29T19:00:58.194Z,26.58
2018-05-29T19:03:24.179Z,26.46
2018-05-29T19:05:50.073Z,26.31
2018-05-29T19:08:16.020Z,26.20
2018-05-29T19:10:41.901Z,26.06
2018-05-29T19:13:07.812Z,25.97
2018-05-29T19:15:33.752Z,25.87
2018-05-29T19:17:59.644Z,25.78
2018-05-29T19:20:25.541Z,25.72
2018-05-29T19:22:51.515Z,25.65
2018-05-29T19:25:17.351Z,25.61
2018-05-29T19:27:43.227Z,25.59
2018-05-29T19:30:09.189Z,25.49
2018-05-29T19:32:35.078Z,25.43
2018-05-29T19:35:00.993Z,25.41
2018-05-29T19:37:26.906Z,25.31
2018-05-29T19:39:52.792Z,25.23
2018-05-29T19:42:18.688Z,25.15
2018-05-29T19:44:44.649Z,25.10
2018-05-29T19:47:10.554Z,24.98
2018-05-29T19:49:36.534Z,24.85
2018-05-29T19:52:02.488Z,24.82
2018-05-29T19:54:28.363Z,24.75
2018-05-29T19:56:54.264Z,24.65
2018-05-29T19:59:20.193Z,24.56
2018-05-29T20:01:46.106Z,24.53
2018-05-29T20:04:12.008Z,24.45
2018-05-29T20:06:37.938Z,24.38
2018-05-29T20:09:04.742Z,24.28
2018-05-29T20:11:30.640Z,24.19
2018-05-29T20:13:56.568Z,24.12
2018-05-29T20:16:22.458Z,24.03
2018-05-29T20:18:48.364Z,23.96
2018-05-29T20:21:14.325Z,23.85
2018-05-29T20:23:40.199Z,23.79
2018-05-29T20:26:06.151Z,23.70
2018-05-29T20:28:32.063Z,23.69
2018-05-29T20:30:57.973Z,23.67
2018-05-29T20:33:23.881Z,23.63
2018-05-29T20:35:49.801Z,23.57
2018-05-29T20:38:15.700Z,23.46
2018-05-29T20:40:41.563Z,23.44
2018-05-29T20:43:07.483Z,23.34
2018-05-29T20:45:33.360Z,23.26
2018-05-29T20:47:59.474Z,23.25
2018-05-29T20:50:25.483Z,23.22
2018-05-29T20:52:51.368Z,23.22
2018-05-29T20:55:23.097Z,23.22
2018-05-29T20:57:48.984Z,23.17
2018-05-29T21:00:14.896Z,23.21
2018-05-29T21:02:40.763Z,23.10
2018-05-29T21:05:06.715Z,23.07
2018-05-29T21:07:32.595Z,23.03
2018-05-29T21:09:58.494Z,22.98
2018-05-29T21:12:24.485Z,22.87
2018-05-29T21:14:51.323Z,22.91
2018-05-29T21:17:17.200Z,22.91
2018-05-29T21:19:43.134Z,22.98
2018-05-29T21:22:09.047Z,22.96
2018-05-29T21:24:34.959Z,22.94
2018-05-29T21:27:00.892Z,22.88
2018-05-29T21:29:26.778Z,22.89
2018-05-29T21:31:52.663Z,22.86
2018-05-29T21:34:18.586Z,22.80
2018-05-29T21:36:44.460Z,22.80
2018-05-29T21:39:10.341Z,22.75
2018-05-29T21:41:36.291Z,22.67
2018-05-29T21:44:02.208Z,22.65
2018-05-29T21:46:28.126Z,22.53
2018-05-29T21:48:54.065Z,22.53
2018-05-29T21:51:20.003Z,22.44
2018-05-29T21:53:45.909Z,22.37
2018-05-29T21:56:12.960Z,22.38
2018-05-29T21:58:38.840Z,22.31
2018-05-29T22:01:04.787Z,22.24
2018-05-29T22:03:30.743Z,22.20
2018-05-29T22:05:56.629Z,22.12
2018-05-29T22:08:22.608Z,22.06
2018-05-29T22:10:48.561Z,22.00
2018-05-29T22:13:14.439Z,22.01
2018-05-29T22:15:40.401Z,21.97
2018-05-29T22:18:06.434Z,21.91
2018-05-29T22:20:32.362Z,21.85
2018-05-29T22:22:58.536Z,21.77
2018-05-29T22:25:24.537Z,21.70
2018-05-29T22:27:50.437Z,21.65
2018-05-29T22:30:16.439Z,21.61
2018-05-29T22:32:42.891Z,21.54
2018-05-29T22:35:09.320Z,21.49
2018-05-29T22:37:35.234Z,21.48
2018-05-29T22:40:01.183Z,21.40
2018-05-29T22:42:27.103Z,21.30
2018-05-29T22:44:53.072Z,21.24
2018-05-29T22:47:19.381Z,21.19
2018-05-29T22:49:45.508Z,21.11
2018-05-29T22:52:11.396Z,21.05
2018-05-29T22:54:37.337Z,20.97
2018-05-29T22:57:03.232Z,20.95
2018-05-29T22:59:29.104Z,20.90
2018-05-29T23:01:55.041Z,20.84
2018-05-29T23:04:20.948Z,20.83
2018-05-29T23:06:46.849Z,20.81
2018-05-29T23:09:12.993Z,20.81
2018-05-29T23:11:39.000Z,20.77
2018-05-29T23:14:04.871Z,20.71
2018-05-29T23:16:30.871Z,20.67
2018-05-29T23:18:56.777Z,20.64
2018-05-29T23:21:22.716Z,20.62
2018-05-29T23:23:48.655Z,20.59
2018-05-29T23:26:14.655Z,20.53
2018-05-29T23:28:41.443Z,20.54
2018-05-29T23:31:07.397Z,20.53
2018-05-29T23:33:33.274Z,20.55
2018-05-29T23:36:00.022Z,20.53
2018-05-29T23:38:25.943Z,20.51
2018-05-29T23:40:51.841Z,20.48
2018-05-29T23:43:17.732Z,20.43
2018-05-29T23:45:43.730Z,20.38
2018-05-29T23:48:09.634Z,20.39
2018-05-29T23:50:35.511Z,20.39
2018-05-29T23:53:01.441Z,20.36
2018-05-29T23:55:27.344Z,20.30
2018-05-29T23:57:53.242Z,20.23
